Breckenridge, TX

11:40 AM CDT on April 28, 2015 (GMT -0500)
Stephens County | | Change Station
CLOSE
Current Station
Airport
Location: Breckenridge,
Elevation: 1283 ft
Nearby Weather Stations

Elev 1283 ft 32.72 °N, 98.89 °W | Updated 25 minutes ago

Overcast
Overcast
54 °F
Feels Like 54 °F
N
15
Wind Variable Wind from NNE
Gusts 23 mph

Today
High -- | Low -- °F
--% Chance of Precip.
Yesterday
High -- | Low -- °F
Precip. -- in
6:51 AM 8:15 PM
Waxing Gibbous, 75% visible
Pressure 30.13 in
Visibility 7.0 miles
Clouds Mostly Cloudy 1700 ft
Overcast 2700 ft
Dew Point 48 °F
Humidity 79%
Rainfall 0.01 in
Snow Depth Not available.
UV 3 out of 12
Pollen 4.20 out of 12
Air Quality Not available.
Flu Activity Local Activity
METAR KBKD 281615Z AUTO 02013G20KT 7SM BKN017 OVC027 12/09 A3013 RMK AO2 T01230087

More Conditions Fewer Conditions

Pressure 30.13 in
Visibility 7.0 miles
Clouds Mostly Cloudy 1700 ft
Overcast 2700 ft
Dew Point 48 °F
Humidity 79%
Rainfall 0.01 in
Snow Depth Not available.
UV 3 out of 12
Pollen 4.20 out of 12
Air Quality Not available.
Flu Activity Local Activity
METAR KBKD 281615Z AUTO 02013G20KT 7SM BKN017 OVC027 12/09 A3013 RMK AO2 T01230087

More Conditions Fewer Conditions

Nowcast | as of 10:30 am CDT on April 28, 2015

Areas of light to moderate rain will continue mainly affecting areas east of a Gainesville...Fort Worth...Gatesville line through 2 PM. Elsewhere...a few sprinkles will continue under cloudy skies. Rainfall totals with any moderate rainfall over central Texas will average between 1/10 and 1/4 of an inch...while a trace to a few hundreths will occur elsewhere. In addition to the rain...brisk...cloudy and cool conditions will continue with north-northeast winds 10 to 20 mph. Temperatures will creep into the upper 50s and lower 60s this afternoon.

×

10-Day Weather Forecast

Almanac

Astronomy

Apr. 28, 2015 Rise Set
Actual Time
Civil Twilight
Nautical Twilight
Astronomical Twilight
Moon
Length of Visible Light
Length of Day
Tomorrow will be .
, % of the Moon is Illuminated

Today's Extremes

State Highs State Lows

Community

WunderPhotos

Upload Photos

1,817,699 photos uploaded!

WunderBlogs® & News

Nearby

Air Quality

  Air Quality AQ Index Pollutant
Not available.

Snow Depth

Station Depth Elevation

Earthquake Activity

City Distance Mag. Time & Date
Minimum magnitude displayed is 2.5.

Coastal Water Temperatures

Place Temperature

Stations

Nearby Weather Stations

Station Location Temp. Windchill Dew Point Humidity Wind Precip. Elev Updated Type